createdAt,value
2022-12-01T00:01:35.348Z,24.40
2022-12-01T00:04:03.127Z,24.50
2022-12-01T00:06:31.923Z,24.30
2022-12-01T00:09:20.293Z,20.40
2022-12-01T00:11:50.097Z,19.70
2022-12-01T00:16:46.068Z,22.10
2022-12-01T00:19:15.127Z,24.90
2022-12-01T00:21:42.984Z,24.40
2022-12-01T00:24:12.104Z,22.80
2022-12-01T00:26:40.332Z,22.50
2022-12-01T00:29:09.096Z,23.70
2022-12-01T00:31:37.630Z,23.40
2022-12-01T00:34:11.070Z,22.00
2022-12-01T00:36:39.469Z,23.20
2022-12-01T00:39:09.777Z,23.20
2022-12-01T00:44:05.538Z,17.80
2022-12-01T00:46:33.639Z,18.10
2022-12-01T00:49:01.467Z,22.10
2022-12-01T00:51:31.092Z,20.40
2022-12-01T00:53:59.514Z,22.70
2022-12-01T00:56:27.238Z,20.40
2022-12-01T00:58:55.073Z,20.80
2022-12-01T01:01:50.001Z,22.50
2022-12-01T01:04:21.778Z,22.90
2022-12-01T01:06:51.509Z,20.00
2022-12-01T01:09:22.328Z,19.70
2022-12-01T01:11:53.350Z,19.60
2022-12-01T01:14:22.270Z,20.20
2022-12-01T01:16:51.652Z,21.70
2022-12-01T01:19:20.707Z,22.70
2022-12-01T01:21:52.450Z,20.50
2022-12-01T01:24:25.122Z,20.80
2022-12-01T01:26:56.567Z,22.00
2022-12-01T01:29:26.442Z,20.70
2022-12-01T01:31:54.477Z,21.80
2022-12-01T01:34:22.303Z,22.50
2022-12-01T01:36:50.248Z,20.80
2022-12-01T01:39:17.981Z,20.80
2022-12-01T01:41:45.693Z,18.70
2022-12-01T01:44:47.014Z,17.40
2022-12-01T01:47:17.350Z,18.40
2022-12-01T01:49:45.172Z,20.60
2022-12-01T01:52:14.507Z,19.10
2022-12-01T01:54:46.522Z,19.60
2022-12-01T01:57:20.695Z,20.10
2022-12-01T01:59:54.436Z,18.70
2022-12-01T02:02:22.187Z,21.00
2022-12-01T02:04:54.760Z,20.40
2022-12-01T02:07:22.736Z,18.80
2022-12-01T02:09:50.596Z,17.20
2022-12-01T02:12:30.758Z,17.60
2022-12-01T02:15:20.231Z,16.70
2022-12-01T02:18:07.069Z,16.70
2022-12-01T02:21:02.586Z,18.80
2022-12-01T02:23:42.781Z,20.60
2022-12-01T02:26:31.883Z,19.60
2022-12-01T02:29:38.932Z,18.40
2022-12-01T02:32:28.882Z,19.00
2022-12-01T02:35:05.776Z,18.20
2022-12-01T02:37:47.969Z,20.40
2022-12-01T02:40:42.560Z,20.50
2022-12-01T02:43:19.572Z,20.40
2022-12-01T02:45:58.640Z,17.50
2022-12-01T02:48:38.684Z,17.20
2022-12-01T02:51:12.775Z,16.10
2022-12-01T02:53:40.994Z,21.20
2022-12-01T02:56:12.656Z,19.60
2022-12-01T02:58:40.408Z,20.70
2022-12-01T03:02:05.877Z,20.50
2022-12-01T03:04:46.249Z,20.80
2022-12-01T03:07:27.110Z,21.30
2022-12-01T03:10:26.324Z,23.30
2022-12-01T03:13:05.556Z,22.10
2022-12-01T03:15:59.754Z,19.10
2022-12-01T03:18:39.910Z,20.70
2022-12-01T03:21:15.316Z,19.10
2022-12-01T03:23:48.524Z,18.10
2022-12-01T03:26:21.450Z,19.50
2022-12-01T03:28:54.598Z,17.40
2022-12-01T03:31:32.110Z,16.80
2022-12-01T03:34:06.742Z,19.40
2022-12-01T03:36:43.160Z,20.70
2022-12-01T03:39:20.714Z,19.30
2022-12-01T03:42:04.657Z,18.70
2022-12-01T03:44:44.043Z,20.80
2022-12-01T03:51:04.310Z,19.30
2022-12-01T03:53:43.408Z,18.80
2022-12-01T03:56:13.665Z,21.50
2022-12-01T03:58:45.576Z,20.40
2022-12-01T04:01:13.480Z,18.90
2022-12-01T04:03:41.343Z,19.70
2022-12-01T04:06:09.234Z,19.00
2022-12-01T04:08:37.606Z,21.00
2022-12-01T04:11:30.947Z,23.50
2022-12-01T04:14:00.499Z,23.40
2022-12-01T04:16:28.297Z,24.00
2022-12-01T04:18:56.052Z,22.90
2022-12-01T04:21:24.043Z,22.90
2022-12-01T04:24:00.904Z,24.70
2022-12-01T04:26:34.132Z,22.50
2022-12-01T04:29:05.548Z,22.00
2022-12-01T04:31:33.702Z,23.70
2022-12-01T04:34:01.884Z,22.70
2022-12-01T04:36:32.140Z,23.10
2022-12-01T04:39:00.183Z,23.60
2022-12-01T04:41:28.061Z,22.10
2022-12-01T04:43:56.481Z,21.00
2022-12-01T04:46:24.756Z,20.40
2022-12-01T04:48:52.485Z,21.90
2022-12-01T04:51:21.464Z,21.40
2022-12-01T04:53:50.634Z,22.30
2022-12-01T04:56:18.751Z,24.00
2022-12-01T04:58:46.578Z,20.30
2022-12-01T05:01:17.254Z,22.10
2022-12-01T05:03:49.535Z,23.20
2022-12-01T05:06:20.785Z,21.40
2022-12-01T05:08:49.181Z,21.30
2022-12-01T05:11:18.470Z,22.70
2022-12-01T05:13:47.822Z,21.70
2022-12-01T05:18:50.837Z,22.10
2022-12-01T05:21:18.730Z,21.20
2022-12-01T05:23:46.649Z,22.80
2022-12-01T05:26:14.334Z,22.30
2022-12-01T05:28:42.129Z,22.40
2022-12-01T05:31:09.905Z,21.50
2022-12-01T05:33:37.855Z,21.00
2022-12-01T05:36:05.905Z,22.70
2022-12-01T05:38:33.637Z,22.90
2022-12-01T05:41:01.723Z,23.80
2022-12-01T05:43:29.847Z,24.40
2022-12-01T05:45:58.306Z,23.00
2022-12-01T05:48:26.184Z,23.70
2022-12-01T05:50:54.013Z,22.70
2022-12-01T05:53:21.897Z,20.70
2022-12-01T05:55:54.431Z,24.90
2022-12-01T05:58:22.709Z,23.50
2022-12-01T06:00:50.411Z,23.80
2022-12-01T06:03:18.328Z,22.60
2022-12-01T06:05:46.025Z,20.80
2022-12-01T06:08:13.722Z,21.70
2022-12-01T06:10:41.675Z,22.10
2022-12-01T06:13:09.346Z,22.40
2022-12-01T06:15:37.434Z,23.60
2022-12-01T06:18:05.297Z,22.80
2022-12-01T06:20:33.089Z,23.40
2022-12-01T06:23:00.990Z,24.30
2022-12-01T06:25:28.787Z,21.40
2022-12-01T06:27:59.745Z,23.00
2022-12-01T06:30:27.490Z,23.20
2022-12-01T06:32:55.346Z,23.30
2022-12-01T06:35:23.104Z,22.80
2022-12-01T06:37:53.330Z,22.70
2022-12-01T06:40:21.126Z,22.60
2022-12-01T06:42:49.094Z,22.00
2022-12-01T06:45:16.977Z,19.90
2022-12-01T06:47:45.021Z,19.00
2022-12-01T06:50:12.762Z,18.40
2022-12-01T06:52:40.502Z,22.40
2022-12-01T06:55:08.674Z,21.80
2022-12-01T06:57:36.376Z,21.00
2022-12-01T07:00:05.135Z,23.10
2022-12-01T07:02:33.153Z,23.00
2022-12-01T07:05:00.913Z,22.80
2022-12-01T07:07:28.690Z,22.30
2022-12-01T07:09:56.709Z,22.00
2022-12-01T07:12:24.496Z,21.40
2022-12-01T07:14:52.286Z,21.20
2022-12-01T07:17:20.296Z,22.20
2022-12-01T07:19:48.364Z,28.10
2022-12-01T07:22:16.426Z,23.50
2022-12-01T07:24:44.239Z,23.50
2022-12-01T07:27:11.934Z,21.20
2022-12-01T07:29:39.651Z,20.50
2022-12-01T07:32:07.702Z,22.60
2022-12-01T07:34:35.426Z,20.70
2022-12-01T07:37:03.285Z,21.10
2022-12-01T07:39:31.101Z,21.60
2022-12-01T07:41:58.938Z,19.80
2022-12-01T07:44:26.827Z,22.20
2022-12-01T07:46:55.114Z,20.90
2022-12-01T07:49:22.859Z,21.30
2022-12-01T07:51:50.535Z,20.60
2022-12-01T07:54:20.308Z,20.00
2022-12-01T07:56:48.162Z,17.00
2022-12-01T07:59:15.938Z,18.30
2022-12-01T08:01:45.479Z,18.30
2022-12-01T08:06:40.952Z,18.00
2022-12-01T08:09:08.825Z,23.50
2022-12-01T08:11:36.724Z,20.10
2022-12-01T08:14:04.498Z,18.90
2022-12-01T08:16:32.343Z,21.20
2022-12-01T08:19:00.343Z,21.40
2022-12-01T08:21:30.441Z,22.40
2022-12-01T08:23:59.140Z,20.40
2022-12-01T08:26:27.666Z,22.50
2022-12-01T08:28:56.170Z,21.10
2022-12-01T08:31:35.936Z,20.70
2022-12-01T08:34:07.394Z,19.30
2022-12-01T08:36:36.007Z,20.80
2022-12-01T08:39:04.061Z,22.70
2022-12-01T08:41:32.119Z,24.60
2022-12-01T08:44:01.002Z,23.50
2022-12-01T08:46:33.401Z,19.40
2022-12-01T08:49:02.731Z,20.80
2022-12-01T08:51:31.193Z,21.30
2022-12-01T08:53:59.952Z,20.70
2022-12-01T08:56:31.470Z,23.40
2022-12-01T08:59:00.112Z,21.10
2022-12-01T09:01:28.285Z,19.10
2022-12-01T09:04:08.955Z,21.40
2022-12-01T09:06:45.540Z,22.20
2022-12-01T09:09:16.483Z,22.20
2022-12-01T09:11:45.335Z,23.00
2022-12-01T09:14:15.007Z,20.00
2022-12-01T09:16:44.443Z,20.50
2022-12-01T09:21:43.532Z,21.70
2022-12-01T09:24:13.371Z,22.80
2022-12-01T09:26:42.790Z,21.30
2022-12-01T09:29:13.776Z,20.90
2022-12-01T09:31:42.753Z,21.00
2022-12-01T09:34:17.690Z,22.80
2022-12-01T09:36:46.922Z,23.10
2022-12-01T09:39:18.489Z,21.80
2022-12-01T09:41:54.446Z,23.20
2022-12-01T09:44:23.656Z,20.30
2022-12-01T09:47:10.748Z,20.40
2022-12-01T09:49:48.174Z,21.10
2022-12-01T09:52:19.315Z,22.50
2022-12-01T09:54:47.964Z,23.80
2022-12-01T09:57:29.956Z,25.10
2022-12-01T09:59:59.829Z,22.40
2022-12-01T10:02:42.654Z,24.30
2022-12-01T10:05:20.102Z,22.90
2022-12-01T10:08:05.661Z,21.20
2022-12-01T10:10:36.125Z,22.20
2022-12-01T10:13:16.636Z,22.20
2022-12-01T10:15:52.668Z,20.10
2022-12-01T10:18:53.710Z,22.20
2022-12-01T10:21:59.871Z,23.30
2022-12-01T10:24:49.084Z,21.00
2022-12-01T10:27:32.635Z,21.30
2022-12-01T10:30:16.280Z,21.10
2022-12-01T10:32:56.289Z,21.20
2022-12-01T10:35:36.357Z,22.10
2022-12-01T10:38:07.252Z,21.00
2022-12-01T10:40:35.400Z,19.30
2022-12-01T10:43:03.377Z,19.90
2022-12-01T10:45:37.276Z,18.40
2022-12-01T10:48:23.485Z,19.00
2022-12-01T10:50:54.155Z,20.90
2022-12-01T10:53:36.725Z,20.30
2022-12-01T10:56:17.103Z,21.00
2022-12-01T10:58:48.805Z,20.60
2022-12-01T11:01:32.018Z,19.20
2022-12-01T11:04:06.411Z,19.20
2022-12-01T11:06:37.001Z,19.60
2022-12-01T11:09:20.255Z,20.10
2022-12-01T11:12:01.647Z,17.90
2022-12-01T11:14:49.567Z,19.90
2022-12-01T11:17:41.226Z,18.80
2022-12-01T11:20:27.935Z,17.70
2022-12-01T11:23:20.560Z,18.50
2022-12-01T11:26:05.736Z,17.00
2022-12-01T11:28:36.504Z,18.40
2022-12-01T11:31:11.408Z,18.70
2022-12-01T11:33:50.936Z,18.90
2022-12-01T11:36:27.076Z,17.00
2022-12-01T11:39:04.772Z,16.80
2022-12-01T11:41:44.470Z,16.00
2022-12-01T11:44:49.781Z,14.80
2022-12-01T11:47:24.401Z,15.40
2022-12-01T11:50:06.903Z,14.80
2022-12-01T11:52:45.385Z,16.40
2022-12-01T11:55:16.921Z,15.30
2022-12-01T11:57:48.486Z,15.60
2022-12-01T12:00:20.657Z,15.30
2022-12-01T12:02:48.555Z,16.90
2022-12-01T12:05:46.343Z,16.60
2022-12-01T12:08:57.646Z,15.60
2022-12-01T12:12:15.453Z,15.70
2022-12-01T12:14:43.494Z,15.10
2022-12-01T12:17:33.473Z,15.80
2022-12-01T12:20:12.400Z,16.90
2022-12-01T12:22:59.403Z,15.60
2022-12-01T12:25:52.577Z,14.40
2022-12-01T12:28:23.276Z,15.00
2022-12-01T12:30:54.965Z,19.00
2022-12-01T12:33:55.713Z,17.80
2022-12-01T12:36:29.560Z,17.00
2022-12-01T12:39:28.558Z,16.20
2022-12-01T12:41:57.813Z,14.90
2022-12-01T12:44:43.852Z,15.20
2022-12-01T12:47:14.236Z,14.00
2022-12-01T12:50:06.228Z,14.70
2022-12-01T12:52:54.872Z,15.20
2022-12-01T12:55:28.558Z,16.00
2022-12-01T12:58:11.043Z,17.60
2022-12-01T13:00:56.391Z,15.90
2022-12-01T13:15:22.736Z,17.00
2022-12-01T13:56:46.326Z,16.90
2022-12-01T14:00:21.888Z,16.20
2022-12-01T14:06:47.196Z,17.80
2022-12-01T14:14:27.724Z,16.50
2022-12-01T14:28:29.304Z,18.10
2022-12-01T14:56:13.551Z,15.20
2022-12-01T15:07:23.393Z,13.50
2022-12-01T15:10:36.859Z,14.20
2022-12-01T15:13:30.860Z,12.50
2022-12-01T15:16:05.122Z,13.00
2022-12-01T15:18:36.732Z,14.70
2022-12-01T15:21:27.074Z,14.80
2022-12-01T15:23:54.995Z,13.80
2022-12-01T15:26:27.204Z,14.80
2022-12-01T15:29:38.620Z,14.00
2022-12-01T15:32:12.602Z,13.70
2022-12-01T15:34:43.922Z,15.40
2022-12-01T15:37:15.788Z,16.50
2022-12-01T15:39:47.429Z,16.30
2022-12-01T15:42:28.323Z,15.70
2022-12-01T15:45:22.032Z,16.10
2022-12-01T15:47:52.014Z,14.00
2022-12-01T15:50:31.075Z,14.80
2022-12-01T15:53:05.656Z,15.30
2022-12-01T15:55:36.632Z,15.40
2022-12-01T15:58:09.605Z,15.10
2022-12-01T16:00:37.748Z,15.30
2022-12-01T16:03:05.816Z,15.40
2022-12-01T16:05:36.129Z,15.00
2022-12-01T16:08:27.949Z,13.40
2022-12-01T16:11:17.421Z,12.70
2022-12-01T16:13:49.248Z,12.60
2022-12-01T16:16:42.116Z,14.70
2022-12-01T16:19:10.202Z,14.50
2022-12-01T16:21:52.202Z,13.70
2022-12-01T16:24:28.151Z,14.60
2022-12-01T16:26:59.049Z,12.60
2022-12-01T16:29:29.256Z,12.80
2022-12-01T16:32:25.920Z,13.20
2022-12-01T16:34:54.195Z,13.70
2022-12-01T16:37:23.151Z,14.40
2022-12-01T16:39:50.952Z,14.30
2022-12-01T16:42:21.280Z,14.80
2022-12-01T16:44:50.642Z,14.60
2022-12-01T16:47:21.830Z,15.60
2022-12-01T16:49:50.357Z,15.60
2022-12-01T16:55:28.202Z,14.50
2022-12-01T16:57:56.038Z,14.10
2022-12-01T17:00:24.238Z,14.90
2022-12-01T17:02:52.896Z,14.30
2022-12-01T17:05:21.305Z,13.70
2022-12-01T17:07:49.607Z,14.10
2022-12-01T17:10:17.976Z,13.20
2022-12-01T17:12:45.970Z,13.80
2022-12-01T17:15:15.461Z,13.10
2022-12-01T17:17:44.347Z,14.10
2022-12-01T17:20:12.905Z,12.70
2022-12-01T17:22:40.676Z,13.50
2022-12-01T17:25:12.308Z,14.50
2022-12-01T17:27:41.896Z,13.90
2022-12-01T17:30:10.881Z,12.30
2022-12-01T17:35:07.537Z,10.80
2022-12-01T17:37:36.991Z,11.90
2022-12-01T17:42:33.981Z,12.30
2022-12-01T17:45:02.265Z,11.40
2022-12-01T17:47:30.120Z,12.30
2022-12-01T17:49:58.000Z,12.30
2022-12-01T17:52:28.577Z,8.90
2022-12-01T17:54:56.842Z,10.10
2022-12-01T17:57:24.899Z,10.80
2022-12-01T17:59:52.687Z,9.40
2022-12-01T18:02:20.509Z,10.80
2022-12-01T18:04:48.671Z,9.90
2022-12-01T18:07:16.828Z,11.30
2022-12-01T18:09:44.887Z,10.90
2022-12-01T18:12:12.907Z,11.10
2022-12-01T18:14:40.828Z,10.70
2022-12-01T18:17:08.650Z,9.60
2022-12-01T18:19:36.627Z,8.60
2022-12-01T18:22:04.481Z,9.20
2022-12-01T18:24:32.458Z,9.90
2022-12-01T18:27:00.460Z,10.50
2022-12-01T18:29:28.920Z,11.10
2022-12-01T18:31:58.912Z,10.40
2022-12-01T18:34:29.482Z,9.80
2022-12-01T18:36:57.740Z,8.70
2022-12-01T18:39:25.555Z,10.90
2022-12-01T18:41:53.613Z,9.20
2022-12-01T18:44:21.537Z,8.60
2022-12-01T18:46:49.677Z,10.60
2022-12-01T18:49:17.639Z,9.30
2022-12-01T18:51:45.483Z,10.50
2022-12-01T18:54:14.898Z,10.60
2022-12-01T18:56:43.356Z,10.30
2022-12-01T18:59:13.979Z,9.00
2022-12-01T19:01:44.228Z,9.10
2022-12-01T19:04:14.150Z,10.40
2022-12-01T19:09:12.626Z,10.20
2022-12-01T19:11:41.616Z,11.70
2022-12-01T19:14:16.139Z,11.20
2022-12-01T19:16:44.809Z,10.50
2022-12-01T19:19:12.744Z,10.80
2022-12-01T19:21:40.772Z,10.50
2022-12-01T19:24:08.897Z,10.50
2022-12-01T19:26:36.697Z,10.50
2022-12-01T19:29:04.463Z,10.50
2022-12-01T19:31:33.161Z,10.00
2022-12-01T19:34:04.405Z,10.00
2022-12-01T19:36:32.180Z,10.20
2022-12-01T19:39:02.610Z,10.90
2022-12-01T19:41:32.171Z,10.10
2022-12-01T19:43:59.967Z,9.90
2022-12-01T19:46:28.873Z,9.90
2022-12-01T19:49:02.954Z,9.00
2022-12-01T19:51:37.597Z,9.40
2022-12-01T19:54:08.577Z,9.90
2022-12-01T19:56:37.171Z,10.10
2022-12-01T19:59:07.731Z,11.10
2022-12-01T20:01:35.502Z,10.90
2022-12-01T20:04:04.494Z,11.30
2022-12-01T20:06:35.104Z,10.80
2022-12-01T20:09:05.866Z,11.90
2022-12-01T20:11:35.358Z,11.60
2022-12-01T20:14:04.944Z,11.70
2022-12-01T20:16:32.772Z,12.00
2022-12-01T20:19:03.071Z,10.20
2022-12-01T20:21:43.286Z,12.00
2022-12-01T20:24:14.041Z,11.30
2022-12-01T20:26:48.036Z,10.70
2022-12-01T20:29:22.689Z,9.40
2022-12-01T20:31:52.924Z,10.10
2022-12-01T20:34:25.921Z,12.00
2022-12-01T20:36:55.143Z,10.20
2022-12-01T20:41:51.654Z,8.80
2022-12-01T20:44:19.923Z,10.70
2022-12-01T20:46:48.355Z,10.90
2022-12-01T20:49:17.493Z,11.00
2022-12-01T20:51:46.441Z,9.20
2022-12-01T20:54:31.289Z,10.10
2022-12-01T20:56:59.319Z,8.80
2022-12-01T20:59:28.606Z,8.90
2022-12-01T21:01:56.526Z,9.90
2022-12-01T21:04:24.481Z,8.30
2022-12-01T21:06:56.011Z,9.20
2022-12-01T21:09:24.142Z,10.10
2022-12-01T21:12:11.204Z,9.40
2022-12-01T21:14:47.441Z,9.10
2022-12-01T21:17:28.389Z,8.00
2022-12-01T21:20:05.164Z,8.90
2022-12-01T21:22:34.336Z,10.20
2022-12-01T21:27:43.475Z,9.20
2022-12-01T21:30:18.811Z,11.30
2022-12-01T21:32:47.834Z,11.80
2022-12-01T21:35:17.730Z,12.20
2022-12-01T21:37:46.940Z,11.20
2022-12-01T21:40:23.866Z,12.10
2022-12-01T21:42:51.984Z,11.20
2022-12-01T21:45:32.090Z,11.80
2022-12-01T21:48:11.295Z,11.90
2022-12-01T21:50:39.149Z,11.60
2022-12-01T21:53:37.101Z,11.10
2022-12-01T21:56:05.092Z,12.60
2022-12-01T21:58:38.392Z,10.40
2022-12-01T22:01:35.774Z,10.40
2022-12-01T22:04:14.186Z,9.60
2022-12-01T22:06:46.450Z,11.20
2022-12-01T22:09:26.905Z,10.60
2022-12-01T22:11:57.365Z,11.00
2022-12-01T22:14:29.953Z,11.90
2022-12-01T22:17:21.338Z,11.80
2022-12-01T22:19:59.282Z,10.90
2022-12-01T22:22:30.364Z,12.10
2022-12-01T22:25:25.656Z,12.50
2022-12-01T22:27:54.512Z,11.00
2022-12-01T22:30:23.895Z,12.20
2022-12-01T22:33:03.804Z,12.20
2022-12-01T22:35:33.788Z,10.90
2022-12-01T22:38:08.900Z,10.90
2022-12-01T22:40:51.684Z,11.70
2022-12-01T22:43:24.705Z,13.00
2022-12-01T22:46:11.683Z,12.10
2022-12-01T22:48:43.149Z,14.00
2022-12-01T22:51:14.214Z,12.60
2022-12-01T22:53:44.043Z,13.40
2022-12-01T22:56:39.912Z,13.40
2022-12-01T22:59:15.867Z,12.80
2022-12-01T23:02:02.194Z,12.10
2022-12-01T23:04:39.911Z,12.30
2022-12-01T23:07:29.385Z,12.80
2022-12-01T23:12:32.464Z,11.30
2022-12-01T23:15:24.993Z,11.60
2022-12-01T23:17:53.625Z,12.60
2022-12-01T23:20:34.243Z,12.30
2022-12-01T23:23:14.611Z,13.40
2022-12-01T23:25:44.105Z,13.70
2022-12-01T23:28:13.170Z,13.50
2022-12-01T23:30:43.747Z,13.80
2022-12-01T23:33:16.866Z,15.40
2022-12-01T23:35:48.677Z,16.00
2022-12-01T23:38:20.937Z,15.70
2022-12-01T23:40:50.231Z,15.10
2022-12-01T23:43:45.823Z,14.10
2022-12-01T23:46:20.730Z,13.90
2022-12-01T23:48:52.589Z,13.70
2022-12-01T23:51:25.687Z,14.30
2022-12-01T23:53:55.929Z,15.20
2022-12-01T23:56:26.587Z,16.40
2022-12-01T23:58:56.179Z,17.10
